• Join FlightAware (Why Join?)
  • Login
  • US Flag 
04:08PM EDT


 

Airport Tracker/Info


-or-


 

Live Flight TrackerFlight Track Log ✈ EJA982 ✈ 28-Jul-2013 ✈ KSAV - KSUA

Flight Track Log - Related Links

Times and Time Zones

All times are in EDT time to prevent confusion due to time zone crossing. See the EJA982 flight status page for this flight to view local times or setup timezone preferences in your user account.

Time Position Orientation Groundspeed Altitude Reporting Facility
EDT Latitude Longitude Course Direction KTS MPH feet Rate Location/Type
09:24PM 31.9944 -81.1975 177° South 255 293 7,000  Level Jacksonville Center
09:25PM 31.9150 -81.1939 178° South 288 331 9,700 2,160 Climbing Jacksonville Center
09:26PM 31.8250 -81.1808 173° South 324 373 11,400 2,040 Climbing Jacksonville Center
09:27PM 31.7225 -81.1583 169° South 368 423 13,800 2,040 Climbing Jacksonville Center
09:28PM 31.5316 -81.0786 180° South  Level Estimated
09:28PM 31.6261 -81.1333 168° South 380 437 15,500  Level Jacksonville Center
09:29PM 31.5067 -81.1039 168° South 399 459 17,600 1,500 Climbing Jacksonville Center
09:30PM 31.3936 -81.0769 169° South 414 476 18,500 840 Climbing Jacksonville Center
09:31PM 31.2806 -81.0525 170° South 436 502 19,300 780 Climbing Jacksonville Center
09:32PM 31.1547 -81.0233 169° South 452 520 20,100 900 Climbing Jacksonville Center
09:33PM 31.0247 -80.9919 168° South 467 537 21,100 1,080 Climbing Jacksonville Center
09:34PM 30.9011 -80.9631 169° South 467 537 22,300 1,200 Climbing Jacksonville Center
09:35PM 30.7733 -80.9342 169° South 467 537 23,600 1,200 Climbing Jacksonville Center
09:36PM 30.6414 -80.9031 169° South 472 543 24,800 1,200 Climbing Jacksonville Center
09:37PM 30.5136 -80.8744 169° South 472 543 26,000 1,200 Climbing Jacksonville Center
09:38PM 30.3900 -80.8408 167° South 467 537 27,200 1,140 Climbing Jacksonville Center
09:39PM 30.2578 -80.8125 170° South 472 543 28,300 1,140 Climbing Jacksonville Center
09:40PM 30.1300 -80.7839 169° South 472 543 29,500 840 Climbing Jacksonville Center
09:41PM 30.0022 -80.7556 169° South 472 543 30,000 240 Climbing Jacksonville Center
09:42PM 29.8722 -80.7250 168° South 472 543 30,000  Level Jacksonville Center
09:43PM 29.7444 -80.6942 168° South 472 543 30,000  Level Jacksonville Center
09:44PM 29.6103 -80.6661 170° South 478 550 30,000  Level Jacksonville Center
09:45PM 29.4614 -80.6292 168° South 491 565 30,000 -1,680 Level Jacksonville Center
09:46PM 29.2994 -80.5944 169° South 508 585 26,500 -2,940 Descending Miami Center
09:47PM 29.1625 -80.5636 169° South 525 604 23,800 -2,280 Descending Miami Center
09:48PM 29.0297 -80.5331 169° South 505 581 22,000 -900 Descending Miami Center
09:49PM 28.9053 -80.5028 168° South 482 555 22,000  Level Miami Center
09:50PM 28.7808 -80.4750 169° South 469 540 22,000  Level Miami Center
09:51PM 28.6647 -80.4500 169° South 469 540 22,000  Level Miami Center
09:52PM 28.5403 -80.4200 168° South 464 534 22,000  Level Miami Center
09:53PM 28.4033 -80.3897 169° South 464 534 22,000  Level Miami Center
09:54PM 28.2808 -80.3622 169° South 464 534 22,000 -1,200 Level Miami Center
09:56PM 28.1433 -80.3220 170° South  Level FlightAware Approximate
09:57PM 27.9653 -80.2892 170° South 453 521 17,700  Level Miami Center
09:58PM 27.8658 -80.2672 169° South 413 475 15,800 -1,800 Descending Miami Center
09:59PM 27.7847 -80.2508 170° South 344 396 14,200 -1,680 Descending Miami Center
10:00PM 27.6975 -80.2317 169° South 328 377 12,500 -1,860 Descending Miami Center
10:01PM 27.6061 -80.2103 168° South 310 357 10,500 -2,040 Descending Miami Center
10:02PM 27.5250 -80.1939 170° South 305 351 8,400 -2,220 Descending Miami Center
10:03PM 27.4478 -80.1986 183° South 293 337 6,200 -1,800 Descending Miami Center
10:04PM 27.3886 -80.2297 205° Southwest 271 312 4,900 -1,380 Descending Miami Center
10:05PM 27.3167 -80.2650 204° Southwest 265 305 3,400 -1,500 Descending Miami Center
10:06PM 27.2597 -80.2914 202° Southwest 236 272 1,900 -1,020 Descending Miami Center
10:07PM 27.2197 -80.2994 190° South 184 212 1,400 -300 Descending Miami Center
10:08PM 27.1733 -80.3286 209° Southwest 184 212 1,400  Level Miami Center
10:12PM 27.1817 -80.2213 85° East  Level Estimated
10:19PM 27.1817 -80.2213 264° West  Level Estimated
10:20PM 27.1817 -80.2213 264° West  Level Estimated
10:21PM 27.1817 -80.2213 264° West  Level Estimated
10:22PM 27.1817 -80.2213 264° West  Level Estimated
10:23PM 27.1817 -80.2213 264° West  Level Estimated